sensor_id;sensor_type;location;lat;lon;timestamp;temperature;humidity
46676;DHT22;32412;51.478;5.694;2022-11-15T00:02:09;8.40;99.90
46676;DHT22;32412;51.478;5.694;2022-11-15T00:04:34;8.50;99.90
46676;DHT22;32412;51.478;5.694;2022-11-15T00:07:00;8.50;99.90
46676;DHT22;32412;51.478;5.694;2022-11-15T00:09:27;8.50;99.90
46676;DHT22;32412;51.478;5.694;2022-11-15T00:11:53;8.60;99.90
46676;DHT22;32412;51.478;5.694;2022-11-15T00:14:21;8.60;99.90
46676;DHT22;32412;51.478;5.694;2022-11-15T00:16:47;8.60;99.90
46676;DHT22;32412;51.478;5.694;2022-11-15T00:19:13;8.60;99.90
46676;DHT22;32412;51.478;5.694;2022-11-15T00:21:39;8.70;99.90
46676;DHT22;32412;51.478;5.694;2022-11-15T00:24:04;8.70;99.90
46676;DHT22;32412;51.478;5.694;2022-11-15T00:26:30;8.70;99.90
46676;DHT22;32412;51.478;5.694;2022-11-15T00:28:57;8.80;99.90
46676;DHT22;32412;51.478;5.694;2022-11-15T00:31:23;8.80;99.90
46676;DHT22;32412;51.478;5.694;2022-11-15T00:33:48;8.80;99.90
46676;DHT22;32412;51.478;5.694;2022-11-15T00:36:14;8.90;99.90
46676;DHT22;32412;51.478;5.694;2022-11-15T00:38:42;8.90;99.90
46676;DHT22;32412;51.478;5.694;2022-11-15T00:41:08;9.00;99.90
46676;DHT22;32412;51.478;5.694;2022-11-15T00:43:34;9.00;99.90
46676;DHT22;32412;51.478;5.694;2022-11-15T00:46:00;9.00;99.90
46676;DHT22;32412;51.478;5.694;2022-11-15T00:48:27;9.10;99.90
46676;DHT22;32412;51.478;5.694;2022-11-15T00:50:53;9.10;99.90
46676;DHT22;32412;51.478;5.694;2022-11-15T00:53:18;9.10;99.90
46676;DHT22;32412;51.478;5.694;2022-11-15T00:55:44;9.10;99.90
46676;DHT22;32412;51.478;5.694;2022-11-15T00:58:10;9.10;99.90
46676;DHT22;32412;51.478;5.694;2022-11-15T01:00:36;9.20;99.90
46676;DHT22;32412;51.478;5.694;2022-11-15T01:03:02;9.20;99.90
46676;DHT22;32412;51.478;5.694;2022-11-15T01:05:30;9.20;99.90
46676;DHT22;32412;51.478;5.694;2022-11-15T01:07:56;9.20;99.90
46676;DHT22;32412;51.478;5.694;2022-11-15T01:10:24;9.30;99.90
46676;DHT22;32412;51.478;5.694;2022-11-15T01:12:51;9.30;99.90
46676;DHT22;32412;51.478;5.694;2022-11-15T01:15:17;9.30;99.90
46676;DHT22;32412;51.478;5.694;2022-11-15T01:17:42;9.30;99.90
46676;DHT22;32412;51.478;5.694;2022-11-15T01:20:08;9.30;99.90
46676;DHT22;32412;51.478;5.694;2022-11-15T01:22:39;9.30;99.90
46676;DHT22;32412;51.478;5.694;2022-11-15T01:25:05;9.30;99.90
46676;DHT22;32412;51.478;5.694;2022-11-15T01:27:30;9.30;99.90
46676;DHT22;32412;51.478;5.694;2022-11-15T01:29:58;9.40;99.90
46676;DHT22;32412;51.478;5.694;2022-11-15T01:32:25;9.40;99.90
46676;DHT22;32412;51.478;5.694;2022-11-15T01:34:51;9.50;99.90
46676;DHT22;32412;51.478;5.694;2022-11-15T01:37:16;9.50;99.90
46676;DHT22;32412;51.478;5.694;2022-11-15T01:39:42;9.50;99.90
46676;DHT22;32412;51.478;5.694;2022-11-15T01:42:12;9.50;99.90
46676;DHT22;32412;51.478;5.694;2022-11-15T01:44:48;9.50;99.90
46676;DHT22;32412;51.478;5.694;2022-11-15T01:50:10;9.60;99.90
46676;DHT22;32412;51.478;5.694;2022-11-15T01:52:36;9.60;99.90
46676;DHT22;32412;51.478;5.694;2022-11-15T01:57:28;9.60;99.90
46676;DHT22;32412;51.478;5.694;2022-11-15T01:59:55;9.60;99.90
46676;DHT22;32412;51.478;5.694;2022-11-15T02:02:22;9.70;99.90
46676;DHT22;32412;51.478;5.694;2022-11-15T02:04:50;9.70;99.90
46676;DHT22;32412;51.478;5.694;2022-11-15T02:07:17;9.70;99.90
46676;DHT22;32412;51.478;5.694;2022-11-15T02:09:46;9.70;99.90
46676;DHT22;32412;51.478;5.694;2022-11-15T02:12:17;9.70;99.90
46676;DHT22;32412;51.478;5.694;2022-11-15T02:14:51;9.70;99.90
46676;DHT22;32412;51.478;5.694;2022-11-15T02:31:25;10.00;99.90
46676;DHT22;32412;51.478;5.694;2022-11-15T02:42:54;10.20;99.90
46676;DHT22;32412;51.478;5.694;2022-11-15T02:45:44;10.30;99.90
46676;DHT22;32412;51.478;5.694;2022-11-15T02:48:11;10.30;99.90
46676;DHT22;32412;51.478;5.694;2022-11-15T02:50:40;10.30;99.90
46676;DHT22;32412;51.478;5.694;2022-11-15T02:53:08;10.30;99.90
46676;DHT22;32412;51.478;5.694;2022-11-15T02:55:36;10.40;99.90
46676;DHT22;32412;51.478;5.694;2022-11-15T03:01:00;10.40;99.90
46676;DHT22;32412;51.478;5.694;2022-11-15T03:06:41;10.40;99.90
46676;DHT22;32412;51.478;5.694;2022-11-15T03:09:21;10.40;99.90
46676;DHT22;32412;51.478;5.694;2022-11-15T03:11:59;10.50;99.90
46676;DHT22;32412;51.478;5.694;2022-11-15T03:14:37;10.50;99.90
46676;DHT22;32412;51.478;5.694;2022-11-15T03:17:26;10.50;99.90
46676;DHT22;32412;51.478;5.694;2022-11-15T03:20:05;10.60;99.90
46676;DHT22;32412;51.478;5.694;2022-11-15T03:22:38;10.60;99.90
46676;DHT22;32412;51.478;5.694;2022-11-15T03:25:07;10.60;99.90
46676;DHT22;32412;51.478;5.694;2022-11-15T03:27:42;10.60;99.90
46676;DHT22;32412;51.478;5.694;2022-11-15T03:30:10;10.70;99.90
46676;DHT22;32412;51.478;5.694;2022-11-15T03:32:50;10.60;99.90
46676;DHT22;32412;51.478;5.694;2022-11-15T03:35:22;10.70;99.90
46676;DHT22;32412;51.478;5.694;2022-11-15T03:37:59;10.60;99.90
46676;DHT22;32412;51.478;5.694;2022-11-15T03:40:44;10.60;99.90
46676;DHT22;32412;51.478;5.694;2022-11-15T03:44:04;10.60;99.90
46676;DHT22;32412;51.478;5.694;2022-11-15T03:46:32;10.60;99.90
46676;DHT22;32412;51.478;5.694;2022-11-15T03:49:09;10.70;99.90
46676;DHT22;32412;51.478;5.694;2022-11-15T03:51:37;10.70;99.90
46676;DHT22;32412;51.478;5.694;2022-11-15T03:54:04;10.70;99.90
46676;DHT22;32412;51.478;5.694;2022-11-15T03:56:30;10.70;99.90
46676;DHT22;32412;51.478;5.694;2022-11-15T03:58:59;10.70;99.90
46676;DHT22;32412;51.478;5.694;2022-11-15T04:01:27;10.70;99.90
46676;DHT22;32412;51.478;5.694;2022-11-15T04:03:57;10.80;99.90
46676;DHT22;32412;51.478;5.694;2022-11-15T04:06:22;10.80;99.90
46676;DHT22;32412;51.478;5.694;2022-11-15T04:08:48;10.80;99.90
46676;DHT22;32412;51.478;5.694;2022-11-15T04:11:14;10.80;99.90
46676;DHT22;32412;51.478;5.694;2022-11-15T04:13:39;10.80;99.90
46676;DHT22;32412;51.478;5.694;2022-11-15T04:16:06;10.80;99.90
46676;DHT22;32412;51.478;5.694;2022-11-15T04:18:34;10.80;99.90
46676;DHT22;32412;51.478;5.694;2022-11-15T04:21:02;10.90;99.90
46676;DHT22;32412;51.478;5.694;2022-11-15T04:23:46;10.90;99.90
46676;DHT22;32412;51.478;5.694;2022-11-15T04:26:22;10.90;99.90
46676;DHT22;32412;51.478;5.694;2022-11-15T04:28:51;10.90;99.90
46676;DHT22;32412;51.478;5.694;2022-11-15T04:31:35;10.90;99.90
46676;DHT22;32412;51.478;5.694;2022-11-15T04:34:01;10.90;99.90
46676;DHT22;32412;51.478;5.694;2022-11-15T04:36:27;10.90;99.90
46676;DHT22;32412;51.478;5.694;2022-11-15T04:39:11;10.90;99.90
46676;DHT22;32412;51.478;5.694;2022-11-15T04:41:37;10.90;99.90
46676;DHT22;32412;51.478;5.694;2022-11-15T04:44:07;10.90;99.90
46676;DHT22;32412;51.478;5.694;2022-11-15T04:46:35;10.90;99.90
46676;DHT22;32412;51.478;5.694;2022-11-15T04:49:27;10.90;99.90
46676;DHT22;32412;51.478;5.694;2022-11-15T04:51:56;10.90;99.90
46676;DHT22;32412;51.478;5.694;2022-11-15T04:54:21;10.90;99.90
46676;DHT22;32412;51.478;5.694;2022-11-15T04:56:50;10.90;99.90
46676;DHT22;32412;51.478;5.694;2022-11-15T04:59:18;10.90;99.90
46676;DHT22;32412;51.478;5.694;2022-11-15T05:01:49;10.90;99.90
46676;DHT22;32412;51.478;5.694;2022-11-15T05:04:18;10.80;99.90
46676;DHT22;32412;51.478;5.694;2022-11-15T05:06:50;10.80;99.90
46676;DHT22;32412;51.478;5.694;2022-11-15T05:09:20;10.90;99.90
46676;DHT22;32412;51.478;5.694;2022-11-15T05:11:49;10.90;99.90
46676;DHT22;32412;51.478;5.694;2022-11-15T05:14:15;10.90;99.90
46676;DHT22;32412;51.478;5.694;2022-11-15T05:16:41;10.90;99.90
46676;DHT22;32412;51.478;5.694;2022-11-15T05:19:07;10.90;99.90
46676;DHT22;32412;51.478;5.694;2022-11-15T05:21:47;10.90;99.90
46676;DHT22;32412;51.478;5.694;2022-11-15T05:24:15;10.90;99.90
46676;DHT22;32412;51.478;5.694;2022-11-15T05:30:15;10.90;99.90
46676;DHT22;32412;51.478;5.694;2022-11-15T05:32:41;10.90;99.90
46676;DHT22;32412;51.478;5.694;2022-11-15T05:35:09;10.90;99.90
46676;DHT22;32412;51.478;5.694;2022-11-15T05:37:37;11.00;99.90
46676;DHT22;32412;51.478;5.694;2022-11-15T05:40:09;11.00;99.90
46676;DHT22;32412;51.478;5.694;2022-11-15T05:42:34;11.00;99.90
46676;DHT22;32412;51.478;5.694;2022-11-15T05:45:03;11.00;99.90
46676;DHT22;32412;51.478;5.694;2022-11-15T05:47:30;11.00;99.90
46676;DHT22;32412;51.478;5.694;2022-11-15T05:49:59;11.00;99.90
46676;DHT22;32412;51.478;5.694;2022-11-15T05:52:29;11.00;99.90
46676;DHT22;32412;51.478;5.694;2022-11-15T05:54:56;11.00;99.90
46676;DHT22;32412;51.478;5.694;2022-11-15T05:57:25;11.00;99.90
46676;DHT22;32412;51.478;5.694;2022-11-15T05:59:54;11.00;99.90
46676;DHT22;32412;51.478;5.694;2022-11-15T06:02:22;11.00;99.90
46676;DHT22;32412;51.478;5.694;2022-11-15T06:05:06;11.00;99.90
46676;DHT22;32412;51.478;5.694;2022-11-15T06:07:31;11.00;99.90
46676;DHT22;32412;51.478;5.694;2022-11-15T06:09:57;11.00;99.90
46676;DHT22;32412;51.478;5.694;2022-11-15T06:12:23;10.90;99.90
46676;DHT22;32412;51.478;5.694;2022-11-15T06:14:51;10.90;99.90
46676;DHT22;32412;51.478;5.694;2022-11-15T06:17:22;11.00;99.90
46676;DHT22;32412;51.478;5.694;2022-11-15T06:19:48;11.00;99.90
46676;DHT22;32412;51.478;5.694;2022-11-15T06:22:14;11.00;99.90
46676;DHT22;32412;51.478;5.694;2022-11-15T06:24:45;11.00;99.90
46676;DHT22;32412;51.478;5.694;2022-11-15T06:27:12;11.00;99.90
46676;DHT22;32412;51.478;5.694;2022-11-15T06:29:37;11.10;99.90
46676;DHT22;32412;51.478;5.694;2022-11-15T06:32:04;11.10;99.90
46676;DHT22;32412;51.478;5.694;2022-11-15T06:34:30;11.10;99.90
46676;DHT22;32412;51.478;5.694;2022-11-15T06:36:56;11.10;99.90
46676;DHT22;32412;51.478;5.694;2022-11-15T06:39:22;11.10;99.90
46676;DHT22;32412;51.478;5.694;2022-11-15T06:41:47;11.10;99.90
46676;DHT22;32412;51.478;5.694;2022-11-15T06:44:13;11.00;99.90
46676;DHT22;32412;51.478;5.694;2022-11-15T06:46:39;11.00;99.90
46676;DHT22;32412;51.478;5.694;2022-11-15T06:49:04;11.00;99.90
46676;DHT22;32412;51.478;5.694;2022-11-15T06:51:30;11.00;99.90
46676;DHT22;32412;51.478;5.694;2022-11-15T06:53:56;11.00;99.90
46676;DHT22;32412;51.478;5.694;2022-11-15T06:56:21;11.00;99.90
46676;DHT22;32412;51.478;5.694;2022-11-15T06:58:47;11.00;99.90
46676;DHT22;32412;51.478;5.694;2022-11-15T07:01:13;11.00;99.90
46676;DHT22;32412;51.478;5.694;2022-11-15T07:03:41;10.90;99.90
46676;DHT22;32412;51.478;5.694;2022-11-15T07:06:07;10.90;99.90
46676;DHT22;32412;51.478;5.694;2022-11-15T07:08:33;10.80;99.90
46676;DHT22;32412;51.478;5.694;2022-11-15T07:11:01;10.90;99.90
46676;DHT22;32412;51.478;5.694;2022-11-15T07:13:28;10.90;99.90
46676;DHT22;32412;51.478;5.694;2022-11-15T07:15:54;10.80;99.90
46676;DHT22;32412;51.478;5.694;2022-11-15T07:18:20;10.80;99.90
46676;DHT22;32412;51.478;5.694;2022-11-15T07:20:45;10.80;99.90
46676;DHT22;32412;51.478;5.694;2022-11-15T07:23:11;10.80;99.90
46676;DHT22;32412;51.478;5.694;2022-11-15T07:25:37;10.80;99.90
46676;DHT22;32412;51.478;5.694;2022-11-15T07:28:03;10.80;99.90
46676;DHT22;32412;51.478;5.694;2022-11-15T07:30:29;10.80;99.90
46676;DHT22;32412;51.478;5.694;2022-11-15T07:32:56;10.80;99.90
46676;DHT22;32412;51.478;5.694;2022-11-15T07:35:23;10.80;99.90
46676;DHT22;32412;51.478;5.694;2022-11-15T07:38:00;10.80;99.90
46676;DHT22;32412;51.478;5.694;2022-11-15T07:40:28;10.80;99.90
46676;DHT22;32412;51.478;5.694;2022-11-15T07:43:01;10.70;99.90
46676;DHT22;32412;51.478;5.694;2022-11-15T07:45:28;10.80;99.90
46676;DHT22;32412;51.478;5.694;2022-11-15T07:47:54;10.80;99.90
46676;DHT22;32412;51.478;5.694;2022-11-15T07:50:22;10.80;99.90
46676;DHT22;32412;51.478;5.694;2022-11-15T07:52:53;10.80;99.90
46676;DHT22;32412;51.478;5.694;2022-11-15T07:55:19;10.80;99.90
46676;DHT22;32412;51.478;5.694;2022-11-15T07:57:45;10.80;99.90
46676;DHT22;32412;51.478;5.694;2022-11-15T08:00:11;10.80;99.90
46676;DHT22;32412;51.478;5.694;2022-11-15T08:02:37;10.80;99.90
46676;DHT22;32412;51.478;5.694;2022-11-15T08:05:02;10.80;99.90
46676;DHT22;32412;51.478;5.694;2022-11-15T08:07:30;10.80;99.90
46676;DHT22;32412;51.478;5.694;2022-11-15T08:09:56;10.80;99.90
46676;DHT22;32412;51.478;5.694;2022-11-15T08:12:22;10.90;99.90
46676;DHT22;32412;51.478;5.694;2022-11-15T08:14:48;10.90;99.90
46676;DHT22;32412;51.478;5.694;2022-11-15T08:17:14;10.90;99.90
46676;DHT22;32412;51.478;5.694;2022-11-15T08:19:40;11.00;99.90
46676;DHT22;32412;51.478;5.694;2022-11-15T08:22:15;11.00;99.90
46676;DHT22;32412;51.478;5.694;2022-11-15T08:24:44;11.00;99.90
46676;DHT22;32412;51.478;5.694;2022-11-15T08:27:10;11.00;99.90
46676;DHT22;32412;51.478;5.694;2022-11-15T08:29:48;11.00;99.90
46676;DHT22;32412;51.478;5.694;2022-11-15T08:32:14;11.00;99.90
46676;DHT22;32412;51.478;5.694;2022-11-15T08:34:39;10.90;99.90
46676;DHT22;32412;51.478;5.694;2022-11-15T08:37:05;10.90;99.90
46676;DHT22;32412;51.478;5.694;2022-11-15T08:39:31;10.90;99.90
46676;DHT22;32412;51.478;5.694;2022-11-15T08:41:57;10.90;99.90
46676;DHT22;32412;51.478;5.694;2022-11-15T08:44:23;10.90;99.90
46676;DHT22;32412;51.478;5.694;2022-11-15T08:46:49;10.90;99.90
46676;DHT22;32412;51.478;5.694;2022-11-15T08:49:15;11.00;99.90
46676;DHT22;32412;51.478;5.694;2022-11-15T08:51:41;11.00;99.90
46676;DHT22;32412;51.478;5.694;2022-11-15T08:54:06;10.90;99.90
46676;DHT22;32412;51.478;5.694;2022-11-15T08:56:32;11.00;99.90
46676;DHT22;32412;51.478;5.694;2022-11-15T08:58:58;11.00;99.90
46676;DHT22;32412;51.478;5.694;2022-11-15T09:01:23;11.20;99.90
46676;DHT22;32412;51.478;5.694;2022-11-15T09:03:49;11.30;99.90
46676;DHT22;32412;51.478;5.694;2022-11-15T09:06:15;11.40;99.90
46676;DHT22;32412;51.478;5.694;2022-11-15T09:08:40;11.30;99.90
46676;DHT22;32412;51.478;5.694;2022-11-15T09:11:07;11.40;99.90
46676;DHT22;32412;51.478;5.694;2022-11-15T09:13:34;11.50;99.90
46676;DHT22;32412;51.478;5.694;2022-11-15T09:16:00;11.60;99.90
46676;DHT22;32412;51.478;5.694;2022-11-15T09:18:26;11.70;99.90
46676;DHT22;32412;51.478;5.694;2022-11-15T09:20:55;11.70;99.90
46676;DHT22;32412;51.478;5.694;2022-11-15T09:23:22;11.70;99.90
46676;DHT22;32412;51.478;5.694;2022-11-15T09:25:48;11.70;99.90
46676;DHT22;32412;51.478;5.694;2022-11-15T09:28:13;11.90;99.90
46676;DHT22;32412;51.478;5.694;2022-11-15T09:30:39;12.20;99.90
46676;DHT22;32412;51.478;5.694;2022-11-15T09:33:09;12.60;99.90
46676;DHT22;32412;51.478;5.694;2022-11-15T09:35:35;13.00;99.90
46676;DHT22;32412;51.478;5.694;2022-11-15T09:38:01;13.30;99.90
46676;DHT22;32412;51.478;5.694;2022-11-15T09:40:27;13.60;99.90
46676;DHT22;32412;51.478;5.694;2022-11-15T09:45:34;14.70;99.90
46676;DHT22;32412;51.478;5.694;2022-11-15T09:48:22;14.80;99.90
46676;DHT22;32412;51.478;5.694;2022-11-15T09:50:51;15.00;99.90
46676;DHT22;32412;51.478;5.694;2022-11-15T09:53:29;15.40;99.90
46676;DHT22;32412;51.478;5.694;2022-11-15T09:56:02;15.40;99.90
46676;DHT22;32412;51.478;5.694;2022-11-15T10:04:15;14.90;99.90
46676;DHT22;32412;51.478;5.694;2022-11-15T10:07:06;14.60;99.90
46676;DHT22;32412;51.478;5.694;2022-11-15T10:12:13;14.70;99.90
46676;DHT22;32412;51.478;5.694;2022-11-15T10:14:39;14.60;99.90
46676;DHT22;32412;51.478;5.694;2022-11-15T10:22:45;14.40;99.90
46676;DHT22;32412;51.478;5.694;2022-11-15T10:27:59;14.80;99.90
46676;DHT22;32412;51.478;5.694;2022-11-15T10:30:40;14.90;99.90
46676;DHT22;32412;51.478;5.694;2022-11-15T10:33:32;14.80;99.90
46676;DHT22;32412;51.478;5.694;2022-11-15T10:41:16;13.80;99.90
46676;DHT22;32412;51.478;5.694;2022-11-15T10:43:42;13.50;99.90
46676;DHT22;32412;51.478;5.694;2022-11-15T10:46:20;13.20;99.90
46676;DHT22;32412;51.478;5.694;2022-11-15T10:48:46;13.10;99.90
46676;DHT22;32412;51.478;5.694;2022-11-15T10:51:30;13.20;99.90
46676;DHT22;32412;51.478;5.694;2022-11-15T10:53:58;13.30;99.90
46676;DHT22;32412;51.478;5.694;2022-11-15T10:56:28;13.30;99.90
46676;DHT22;32412;51.478;5.694;2022-11-15T10:58:56;13.30;99.90
46676;DHT22;32412;51.478;5.694;2022-11-15T11:01:26;13.30;99.90
46676;DHT22;32412;51.478;5.694;2022-11-15T11:04:07;13.30;99.90
46676;DHT22;32412;51.478;5.694;2022-11-15T11:06:47;13.40;99.90
46676;DHT22;32412;51.478;5.694;2022-11-15T11:11:51;13.20;99.90
46676;DHT22;32412;51.478;5.694;2022-11-15T11:14:34;13.40;99.90
46676;DHT22;32412;51.478;5.694;2022-11-15T11:30:50;17.10;99.90
46676;DHT22;32412;51.478;5.694;2022-11-15T11:33:31;17.50;99.90
46676;DHT22;32412;51.478;5.694;2022-11-15T11:36:08;17.30;99.90
46676;DHT22;32412;51.478;5.694;2022-11-15T11:44:37;17.10;99.90
46676;DHT22;32412;51.478;5.694;2022-11-15T11:47:11;17.00;99.90
46676;DHT22;32412;51.478;5.694;2022-11-15T11:49:47;17.00;99.90
46676;DHT22;32412;51.478;5.694;2022-11-15T11:55:11;17.40;99.90
46676;DHT22;32412;51.478;5.694;2022-11-15T12:00:26;17.10;99.90
46676;DHT22;32412;51.478;5.694;2022-11-15T12:03:13;16.70;99.90
46676;DHT22;32412;51.478;5.694;2022-11-15T12:05:51;16.70;99.90
46676;DHT22;32412;51.478;5.694;2022-11-15T12:13:36;18.00;99.90
46676;DHT22;32412;51.478;5.694;2022-11-15T12:16:14;17.80;99.90
46676;DHT22;32412;51.478;5.694;2022-11-15T12:18:47;17.30;99.90
46676;DHT22;32412;51.478;5.694;2022-11-15T12:21:19;17.00;99.90
46676;DHT22;32412;51.478;5.694;2022-11-15T12:23:50;16.70;99.90
46676;DHT22;32412;51.478;5.694;2022-11-15T12:26:24;16.50;99.90
46676;DHT22;32412;51.478;5.694;2022-11-15T12:28:59;16.70;99.90
46676;DHT22;32412;51.478;5.694;2022-11-15T12:31:36;16.40;99.90
46676;DHT22;32412;51.478;5.694;2022-11-15T12:36:49;15.70;99.90
46676;DHT22;32412;51.478;5.694;2022-11-15T12:39:16;15.40;99.90
46676;DHT22;32412;51.478;5.694;2022-11-15T12:47:26;14.40;99.90
46676;DHT22;32412;51.478;5.694;2022-11-15T12:49:52;14.30;99.90
46676;DHT22;32412;51.478;5.694;2022-11-15T12:52:18;14.00;99.90
46676;DHT22;32412;51.478;5.694;2022-11-15T12:54:56;13.90;99.90
46676;DHT22;32412;51.478;5.694;2022-11-15T12:57:28;13.80;99.90
46676;DHT22;32412;51.478;5.694;2022-11-15T13:02:42;13.70;99.90
46676;DHT22;32412;51.478;5.694;2022-11-15T13:17:51;13.80;99.90
46676;DHT22;32412;51.478;5.694;2022-11-15T13:20:22;13.70;99.90
46676;DHT22;32412;51.478;5.694;2022-11-15T13:23:02;13.70;99.90
46676;DHT22;32412;51.478;5.694;2022-11-15T13:30:54;13.60;99.90
46676;DHT22;32412;51.478;5.694;2022-11-15T13:33:33;13.60;99.90
46676;DHT22;32412;51.478;5.694;2022-11-15T13:36:02;13.60;99.90
46676;DHT22;32412;51.478;5.694;2022-11-15T13:38:35;13.60;99.90
46676;DHT22;32412;51.478;5.694;2022-11-15T13:41:21;13.60;99.90
46676;DHT22;32412;51.478;5.694;2022-11-15T13:43:49;13.60;99.90
46676;DHT22;32412;51.478;5.694;2022-11-15T13:46:26;13.60;99.90
46676;DHT22;32412;51.478;5.694;2022-11-15T13:51:48;13.60;99.90
46676;DHT22;32412;51.478;5.694;2022-11-15T13:54:23;13.60;99.90
46676;DHT22;32412;51.478;5.694;2022-11-15T13:57:00;13.50;99.90
46676;DHT22;32412;51.478;5.694;2022-11-15T13:59:45;13.40;99.90
46676;DHT22;32412;51.478;5.694;2022-11-15T14:02:18;13.40;99.90
46676;DHT22;32412;51.478;5.694;2022-11-15T14:04:58;13.40;99.90
46676;DHT22;32412;51.478;5.694;2022-11-15T14:07:27;13.30;99.90
46676;DHT22;32412;51.478;5.694;2022-11-15T14:09:54;13.20;99.90
46676;DHT22;32412;51.478;5.694;2022-11-15T14:12:31;13.20;99.90
46676;DHT22;32412;51.478;5.694;2022-11-15T14:15:30;13.10;99.90
46676;DHT22;32412;51.478;5.694;2022-11-15T14:17:47;13.10;99.90
46676;DHT22;32412;51.478;5.694;2022-11-15T14:20:39;13.10;99.90
46676;DHT22;32412;51.478;5.694;2022-11-15T14:23:27;13.00;99.90
46676;DHT22;32412;51.478;5.694;2022-11-15T14:25:55;12.90;99.90
46676;DHT22;32412;51.478;5.694;2022-11-15T14:30:51;13.00;99.90
46676;DHT22;32412;51.478;5.694;2022-11-15T14:33:27;12.90;99.90
46676;DHT22;32412;51.478;5.694;2022-11-15T14:35:55;12.90;99.90
46676;DHT22;32412;51.478;5.694;2022-11-15T14:38:23;12.90;99.90
46676;DHT22;32412;51.478;5.694;2022-11-15T14:40:49;12.90;99.90
46676;DHT22;32412;51.478;5.694;2022-11-15T14:43:15;12.90;99.90
46676;DHT22;32412;51.478;5.694;2022-11-15T14:45:41;13.00;99.90
46676;DHT22;32412;51.478;5.694;2022-11-15T14:48:07;13.00;99.90
46676;DHT22;32412;51.478;5.694;2022-11-15T14:50:34;12.90;99.90
46676;DHT22;32412;51.478;5.694;2022-11-15T14:53:00;12.90;99.90
46676;DHT22;32412;51.478;5.694;2022-11-15T14:55:34;12.90;99.90
46676;DHT22;32412;51.478;5.694;2022-11-15T14:58:03;12.90;99.90
46676;DHT22;32412;51.478;5.694;2022-11-15T15:00:32;12.80;99.90
46676;DHT22;32412;51.478;5.694;2022-11-15T15:02:58;12.80;99.90
46676;DHT22;32412;51.478;5.694;2022-11-15T15:05:36;12.90;99.90
46676;DHT22;32412;51.478;5.694;2022-11-15T15:08:02;12.80;99.90
46676;DHT22;32412;51.478;5.694;2022-11-15T15:10:31;12.80;99.90
46676;DHT22;32412;51.478;5.694;2022-11-15T15:12:57;12.80;99.90
46676;DHT22;32412;51.478;5.694;2022-11-15T15:15:41;12.80;99.90
46676;DHT22;32412;51.478;5.694;2022-11-15T15:18:07;12.80;99.90
46676;DHT22;32412;51.478;5.694;2022-11-15T15:20:34;12.70;99.90
46676;DHT22;32412;51.478;5.694;2022-11-15T15:23:00;12.70;99.90
46676;DHT22;32412;51.478;5.694;2022-11-15T15:25:30;12.70;99.90
46676;DHT22;32412;51.478;5.694;2022-11-15T15:27:57;12.70;99.90
46676;DHT22;32412;51.478;5.694;2022-11-15T15:30:23;12.70;99.90
46676;DHT22;32412;51.478;5.694;2022-11-15T15:32:49;12.70;99.90
46676;DHT22;32412;51.478;5.694;2022-11-15T15:35:15;12.70;99.90
46676;DHT22;32412;51.478;5.694;2022-11-15T15:37:43;12.70;99.90
46676;DHT22;32412;51.478;5.694;2022-11-15T15:40:20;12.60;99.90
46676;DHT22;32412;51.478;5.694;2022-11-15T15:42:46;12.60;99.90
46676;DHT22;32412;51.478;5.694;2022-11-15T15:45:12;12.60;99.90
46676;DHT22;32412;51.478;5.694;2022-11-15T15:47:39;12.60;99.90
46676;DHT22;32412;51.478;5.694;2022-11-15T15:50:18;12.50;99.90
46676;DHT22;32412;51.478;5.694;2022-11-15T15:52:45;12.50;99.90
46676;DHT22;32412;51.478;5.694;2022-11-15T15:55:10;12.50;99.90
46676;DHT22;32412;51.478;5.694;2022-11-15T15:57:36;12.50;99.90
46676;DHT22;32412;51.478;5.694;2022-11-15T16:00:04;12.40;99.90
46676;DHT22;32412;51.478;5.694;2022-11-15T16:02:30;12.50;99.90
46676;DHT22;32412;51.478;5.694;2022-11-15T16:04:58;12.50;99.90
46676;DHT22;32412;51.478;5.694;2022-11-15T16:07:24;12.50;99.90
46676;DHT22;32412;51.478;5.694;2022-11-15T16:09:50;12.50;99.90
46676;DHT22;32412;51.478;5.694;2022-11-15T16:12:29;12.50;99.90
46676;DHT22;32412;51.478;5.694;2022-11-15T16:14:58;12.40;99.90
46676;DHT22;32412;51.478;5.694;2022-11-15T16:17:32;12.40;99.90
46676;DHT22;32412;51.478;5.694;2022-11-15T16:19:59;12.50;99.90
46676;DHT22;32412;51.478;5.694;2022-11-15T16:22:25;12.40;99.90
46676;DHT22;32412;51.478;5.694;2022-11-15T16:24:53;12.40;99.90
46676;DHT22;32412;51.478;5.694;2022-11-15T16:27:20;12.50;99.90
46676;DHT22;32412;51.478;5.694;2022-11-15T16:29:47;12.50;99.90
46676;DHT22;32412;51.478;5.694;2022-11-15T16:32:13;12.40;99.90
46676;DHT22;32412;51.478;5.694;2022-11-15T16:34:39;12.30;99.90
46676;DHT22;32412;51.478;5.694;2022-11-15T16:37:05;12.20;99.90
46676;DHT22;32412;51.478;5.694;2022-11-15T16:39:31;12.00;99.90
46676;DHT22;32412;51.478;5.694;2022-11-15T16:41:58;11.90;99.90
46676;DHT22;32412;51.478;5.694;2022-11-15T16:44:24;11.80;99.90
46676;DHT22;32412;51.478;5.694;2022-11-15T16:46:50;11.70;99.90
46676;DHT22;32412;51.478;5.694;2022-11-15T16:49:19;11.70;99.90
46676;DHT22;32412;51.478;5.694;2022-11-15T16:51:46;11.60;99.90
46676;DHT22;32412;51.478;5.694;2022-11-15T16:54:12;11.50;99.90
46676;DHT22;32412;51.478;5.694;2022-11-15T16:56:39;11.40;99.90
46676;DHT22;32412;51.478;5.694;2022-11-15T16:59:05;11.30;99.90
46676;DHT22;32412;51.478;5.694;2022-11-15T17:01:33;11.20;99.90
46676;DHT22;32412;51.478;5.694;2022-11-15T17:04:00;11.20;99.90
46676;DHT22;32412;51.478;5.694;2022-11-15T17:06:38;11.20;99.90
46676;DHT22;32412;51.478;5.694;2022-11-15T17:09:17;11.10;99.90
46676;DHT22;32412;51.478;5.694;2022-11-15T17:11:44;11.10;99.90
46676;DHT22;32412;51.478;5.694;2022-11-15T17:14:15;11.10;99.90
46676;DHT22;32412;51.478;5.694;2022-11-15T17:16:41;11.10;99.90
46676;DHT22;32412;51.478;5.694;2022-11-15T17:19:16;11.10;99.90
46676;DHT22;32412;51.478;5.694;2022-11-15T17:21:43;11.10;99.90
46676;DHT22;32412;51.478;5.694;2022-11-15T17:24:09;11.10;99.90
46676;DHT22;32412;51.478;5.694;2022-11-15T17:26:35;11.10;99.90
46676;DHT22;32412;51.478;5.694;2022-11-15T17:29:02;11.10;99.90
46676;DHT22;32412;51.478;5.694;2022-11-15T17:31:29;11.10;99.90
46676;DHT22;32412;51.478;5.694;2022-11-15T17:33:59;11.10;99.90
46676;DHT22;32412;51.478;5.694;2022-11-15T17:36:25;11.10;99.90
46676;DHT22;32412;51.478;5.694;2022-11-15T17:38:53;11.10;99.90
46676;DHT22;32412;51.478;5.694;2022-11-15T17:41:18;11.10;99.90
46676;DHT22;32412;51.478;5.694;2022-11-15T17:43:45;11.00;99.90
46676;DHT22;32412;51.478;5.694;2022-11-15T17:46:14;11.10;99.90
46676;DHT22;32412;51.478;5.694;2022-11-15T17:48:40;11.00;99.90
46676;DHT22;32412;51.478;5.694;2022-11-15T17:51:11;11.00;99.90
46676;DHT22;32412;51.478;5.694;2022-11-15T17:53:41;11.00;99.90
46676;DHT22;32412;51.478;5.694;2022-11-15T17:56:18;11.00;99.90
46676;DHT22;32412;51.478;5.694;2022-11-15T17:58:56;11.10;99.90